Latest Coastal Weather Observations for Rhyll

IDV60701

Issued at 1:21 pm EDT Saturday 20 December 2014 (issued every 10 minutes, with the page automatically refreshed every 10 minutes)

About coastal observations | Map of coastal stations | Coastal observations for VIC | Marine services | Other Formats
Station Details ID: 086373 Name: RHYLL Lat: -38.46 Lon: 145.31 Height: 13.4 m
Data from the previous 72 hours. | See also: Recent months at Rhyll
Date/Time
EDT
Temp

°C
Wind Pressure Rain
since 9am
mm
Weather Cloud Vis
km
Sea
Height
m
Swell
Dir
 
Speed
knots
Gust
knots
hPa Trend Height
m
Period
s
Dir
20/01:00pm 19.0 W 6 11 1018.9 - 0.0 - - - - - - -
20/12:30pm 19.6 WSW 6 11 1019.0 - 0.0 - - - - - - -
20/12:00pm 19.0 WSW 5 10 1018.9 - 0.0 - - - - - - -
20/11:30am 18.2 W 5 11 1019.0 - 0.0 - - - - - - -
20/11:00am 18.5 WNW 4 9 1018.9 - 0.0 - - - - - - -
20/10:30am 17.4 NW 6 11 1019.1 - 0.0 - - - - - - -
20/10:00am 17.3 NW 5 9 1019.1 - 0.0 - - - - - - -
20/09:30am 17.0 WNW 4 7 1019.0 - 0.0 - - - - - - -
20/09:00am 15.9 W 4 7 1018.9 - 0.0 - - - - - - -
20/08:30am 15.6 W 4 7 1018.6 - 0.0 - - - - - - -
20/08:00am 15.3 W 2 5 1018.3 - 0.0 - - - - - - -
20/07:30am 15.1 W 2 4 1018.1 - 0.0 - - - - - - -
20/07:00am 14.6 W 3 5 1018.0 - 0.0 - - - - - - -
20/06:30am 14.2 W 3 5 1017.7 - 0.0 - - - - - - -
20/06:00am 14.2 W 3 5 1017.5 - 0.0 - - - - - - -
20/05:30am 14.2 W 3 5 1017.5 - 0.0 - - - - - - -
20/05:00am 14.1 W 3 5 1017.4 - 0.0 - - - - - - -
20/04:30am 13.5 WNW 2 4 1017.3 - 0.0 - - - - - - -
20/04:00am 13.2 W 3 4 1017.5 - 0.0 - - - - - - -
20/03:30am 13.1 W 3 4 1017.5 - 0.0 - - - - - - -
20/03:00am 13.4 WSW 4 5 1017.7 - 0.0 - - - - - - -
20/02:30am 13.1 WSW 3 5 1017.9 - 0.0 - - - - - - -
20/02:00am 13.0 WSW 3 5 1018.1 - 0.0 - - - - - - -
20/01:30am 13.0 W 3 5 1018.5 - 0.0 - - - - - - -
20/01:00am 13.7 WSW 4 5 1018.6 - 0.0 - - - - - - -
20/12:30am 13.9 SW 4 7 1018.8 - 0.0 - - - - - - -
20/12:00am 14.2 SW 6 9 1019.1 - 0.0 - - - - - - -
 
Date/Time
EDT
Temp

°C
Wind Pressure Rain
since 9am
mm
Weather Cloud Vis
km
Sea
Height
m
Swell
Dir
 
Speed
knots
Gust
knots
hPa Trend Height
m
Period
s
Dir
19/11:30pm 14.2 SW 6 10 1019.5 - 0.0 - - - - - - -
19/11:00pm 14.2 WSW 5 8 1019.7 - 0.0 - - - - - - -
19/10:30pm 14.5 SW 6 10 1019.7 - 0.0 - - - - - - -
19/10:00pm 14.4 SW 4 7 1019.6 - 0.0 - - - - - - -
19/09:30pm 14.3 WSW 4 7 1019.7 - 0.0 - - - - - - -
19/09:00pm 14.2 SW 3 5 1019.7 - 0.0 - - - - - - -
19/08:30pm 14.7 SW 6 9 1019.6 - 0.0 - - - - - - -
19/08:00pm 15.3 SW 7 11 1019.4 - 0.0 - - - - - - -
19/07:30pm 15.5 SW 7 13 1019.1 - 0.0 - - - - - - -
19/07:00pm 16.0 SW 9 14 1018.7 - 0.0 - - - - - - -
19/06:30pm 16.7 SW 8 14 1018.4 - 0.0 - - - - - - -
19/06:00pm 16.6 SSW 8 13 1018.1 - 0.0 - - - - - - -
19/05:30pm 16.8 SW 10 16 1018.2 - 0.0 - - - - - - -
19/05:00pm 16.4 SSW 9 18 1018.0 - 0.0 - - - - - - -
19/04:30pm 17.7 SW 7 14 1017.9 - 0.0 - - - - - - -
19/04:00pm 17.3 SSW 9 17 1017.9 - 0.0 - - - - - - -
19/03:30pm 17.0 SSW 8 13 1017.8 - 0.0 - - - - - - -
19/03:00pm 16.8 SSW 8 15 1017.9 - 0.0 - - - - - - -
19/02:30pm 17.1 SSW 8 13 1017.7 - 0.0 - - - - - - -
19/02:00pm 16.5 SSW 8 14 1017.7 - 0.0 - - - - - - -
19/01:30pm 17.2 SSW 7 14 1017.7 - 0.0 - - - - - - -
19/01:00pm 15.5 WSW 9 17 1017.9 - 0.0 - - - - - - -
19/12:30pm 16.4 SSW 11 15 1017.7 - 0.0 - - - - - - -
19/12:00pm 15.9 SW 9 17 1017.5 - 0.0 - - - - - - -
19/11:30am 16.0 SSW 7 13 1017.3 - 0.0 - - - - - - -
19/11:00am 17.1 SSW 8 14 1017.1 - 0.0 - - - - - - -
19/10:30am 16.2 SSW 9 15 1016.9 - 0.0 - - - - - - -
19/10:00am 16.2 SW 8 15 1016.6 - 0.0 - - - - - - -
19/09:30am 15.3 SW 7 13 1016.3 - 0.0 - - - - - - -
19/09:00am 14.4 SSW 6 9 1016.1 - 9.2 - - - - - - -
19/08:30am 15.0 SW 5 9 1015.7 - 9.2 - - - - - - -
19/08:00am 13.0 S 7 11 1015.6 - 9.2 - - - - - - -
19/07:30am 14.4 SW 8 14 1015.2 - 9.2 - - - - - - -
19/07:00am 13.6 SW 6 11 1014.7 - 9.2 - - - - - - -
19/06:30am 12.7 SW 7 12 1014.4 - 9.2 - - - - - - -
19/06:00am 12.1 W 5 8 1014.2 - 8.8 Recent precip. - - - - - -
19/05:30am 11.7 W 5 8 1013.9 - 8.8 - - - - - - -
19/05:00am 12.4 WNW 3 7 1013.6 - 8.2 - - - - - - -
19/04:30am 11.9 W 4 6 1013.2 - 8.2 - - - - - - -
19/04:00am 12.7 W 4 7 1013.1 - 8.2 - - - - - - -
19/03:30am 13.0 WSW 4 5 1012.8 - 7.6 - - - - - - -
19/03:00am 12.6 WSW 4 7 1012.8 - 7.6 - - - - - - -
19/02:30am 12.4 W 4 6 1012.8 - 7.6 - - - - - - -
19/02:00am 12.8 WSW 4 6 1012.8 - 7.6 - - - - - - -
19/01:30am 13.3 SW 7 12 1012.8 - 7.6 - - - - - - -
19/01:00am 13.2 WSW 4 7 1012.8 - 7.6 - - - - - - -
19/12:30am 13.4 W 5 8 1012.8 - 7.6 - - - - - - -
19/12:00am 13.5 WSW 5 11 1012.7 - 7.6 - - - - - - -
 
Date/Time
EDT
Temp

°C
Wind Pressure Rain
since 9am
mm
Weather Cloud Vis
km
Sea
Height
m
Swell
Dir
 
Speed
knots
Gust
knots
hPa Trend Height
m
Period
s
Dir
18/11:30pm 13.5 WSW 5 8 1012.6 - 7.6 - - - - - - -
18/11:00pm 13.8 WSW 6 10 1012.4 - 7.6 - - - - - - -
18/10:30pm 13.6 WSW 5 9 1012.3 - 7.6 - - - - - - -
18/10:00pm 13.4 WSW 6 9 1012.1 - 7.6 - - - - - - -
18/09:30pm 13.5 WSW 7 12 1011.7 - 7.6 - - - - - - -
18/09:00pm 14.6 WSW 6 10 1011.4 - 6.8 - - - - - - -
18/08:30pm 15.2 WSW 5 10 1011.1 - 6.8 - - - - - - -
18/08:00pm 15.2 W 5 8 1010.8 - 6.8 - - - - - - -
18/07:30pm 15.9 W 5 11 1010.2 - 6.8 - - - - - - -
18/07:00pm 15.4 W 7 14 1009.7 - 6.8 - - - - - - -
18/06:30pm 15.9 W 6 13 1009.3 - 6.8 - - - - - - -
18/06:00pm 15.0 WSW 5 10 1008.8 - 6.8 Recent precip. - - - - - -
18/05:30pm 13.5 W 6 10 1008.4 - 6.8 - - - - - - -
18/05:00pm 13.4 WSW 6 12 1008.3 - 5.0 - - - - - - -
18/04:30pm 13.2 WSW 8 14 1007.9 - 2.6 - - - - - - -
18/04:00pm 14.4 WSW 12 20 1007.4 - 1.0 - - - - - - -
18/03:30pm 18.5 SW 9 16 1006.2 - 0.0 - - - - - - -
18/03:00pm 20.8 WSW 10 17 1005.5 - 0.0 - - - - - - -
18/02:30pm 20.5 WSW 9 15 1005.4 - 0.0 - - - - - - -
18/02:00pm 20.6 WSW 7 12 1005.4 - 0.0 - - - - - - -
18/01:30pm 20.0 WSW 9 18 1005.6 - 0.0 - - - - - - -
18/01:00pm 19.4 WSW 7 15 1005.6 - 0.0 - - - - - - -
18/12:30pm 19.5 W 9 18 1005.9 - 0.0 - - - - - - -
18/12:00pm 18.9 W 9 21 1005.9 - 0.0 - - - - - - -
18/11:30am 19.5 W 9 17 1005.7 - 0.0 - - - - - - -
18/11:00am 19.9 WNW 7 13 1005.3 - 0.0 - - - - - - -
18/10:30am 19.4 WNW 7 14 1005.3 - 0.0 - - - - - - -
18/10:00am 19.4 NW 7 12 1005.3 - 0.0 - - - - - - -
18/09:30am 18.6 NNW 9 12 1005.3 - 0.0 - - - - - - -
18/09:00am 16.5 NNW 11 13 1005.2 - 0.0 - - - - - - -
18/08:30am 15.8 NNW 9 13 1005.3 - 0.0 - - - - - - -
18/08:00am 14.6 N 11 13 1005.5 - 0.0 - - - - - - -
18/07:30am 13.7 NNE 6 9 1005.2 - 0.0 - - - - - - -
18/07:00am 13.4 NNE 8 11 1005.2 - 0.0 - - - - - - -
18/06:30am 13.4 NE 11 13 1005.0 - 0.0 - - - - - - -
18/06:00am 13.6 NE 13 15 1005.1 - 0.0 - - - - - - -
18/05:30am 13.2 NNE 9 11 1005.3 - 0.0 - - - - - - -
18/05:00am 13.3 NE 8 10 1005.3 - 0.0 - - - - - - -
18/04:30am 13.7 NNE 5 7 1005.2 - 0.0 - - - - - - -
18/04:00am 13.4 NE 5 8 1005.2 - 0.0 - - - - - - -
18/03:30am 12.5 ESE 2 3 1005.4 - 0.0 - - - - - - -
18/03:00am 12.7 E 3 5 1005.7 - 0.0 - - - - - - -
18/02:30am 12.9 E 6 9 1005.7 - 0.0 - - - - - - -
18/02:00am 13.3 E 8 10 1005.9 - 0.0 - - - - - - -
18/01:30am 14.0 E 9 13 1006.4 - 0.0 - - - - - - -
18/01:00am 14.5 E 10 13 1006.8 - 0.0 - - - - - - -
18/12:30am 14.8 E 12 14 1007.2 - 0.0 - - - - - - -
18/12:00am 14.3 E 12 15 1007.7 - 0.0 - - - - - - -
 
Date/Time
EDT
Temp

°C
Wind Pressure Rain
since 9am
mm
Weather Cloud Vis
km
Sea
Height
m
Swell
Dir
 
Speed
knots
Gust
knots
hPa Trend Height
m
Period
s
Dir
17/11:30pm 14.6 E 10 13 1008.1 - 0.0 - - - - - - -
17/11:00pm 14.6 ESE 9 11 1008.2 - 0.0 - - - - - - -
17/10:30pm 14.1 ENE 11 15 1008.5 - 0.0 - - - - - - -
17/10:00pm 14.9 ESE 10 12 1008.7 - 0.0 - - - - - - -
17/09:30pm 15.1 ESE 7 11 1008.7 - 0.0 - - - - - - -
17/09:00pm 14.9 SE 5 6 1008.5 - 0.0 - - - - - - -
17/08:30pm 15.0 SSE 5 7 1008.7 - 0.0 - - - - - - -
17/08:00pm 16.1 S 4 6 1008.7 - 0.0 - - - - - - -
17/07:30pm 17.0 S 5 8 1008.6 - 0.0 - - - - - - -
17/07:00pm 17.5 S 5 8 1008.5 - 0.0 - - - - - - -
17/06:30pm 17.9 S 5 9 1008.4 - 0.0 - - - - - - -
17/06:00pm 18.5 S 4 7 1008.3 - 0.0 - - - - - - -
17/05:30pm 18.4 S 5 9 1008.3 - 0.0 - - - - - - -
17/05:00pm 18.8 S 5 9 1008.5 - 0.0 - - - - - - -
17/04:30pm 18.8 S 5 10 1008.5 - 0.0 - - - - - - -
17/04:00pm 18.9 S 6 12 1008.7 - 0.0 - - - - - - -
17/03:30pm 17.9 SSW 6 11 1009.0 - 0.0 - - - - - - -
17/03:00pm 18.5 S 6 12 1009.0 - 0.0 - - - - - - -
17/02:30pm 19.0 S 7 12 1009.1 - 0.0 - - - - - - -
17/02:00pm 18.9 SSW 8 14 1009.2 - 0.0 - - - - - - -
17/01:30pm 18.1 SSW 6 13 1009.4 - 0.0 - - - - - - -

Other Formats:

Comma delimited format used in spreadsheet applications
http://www.bom.gov.au/fwo/IDV60701/IDV60701.94892.axf

JavaScript Object Notation format (JSON) in row-major order
http://www.bom.gov.au/fwo/IDV60701/IDV60701.94892.json